»·PEaware :: N501NM KDNA-KDNA

N501NM :: KDNA-KDNA

FLIGHT INFORMATION

Flight Status: Arrived
Operator: Privately registered:
United States
More flights under this callsign
Pilot: Erik A. (17503)
Aircraft: CANADAIR CL-600 CHALLENGER
(CL60)
More flights by this aircraft type
Origin: KDNA Dona Ana County
United States
Destination: KDNA Dona Ana County
United States
More flights between these airports :: More routes between these airports
Route: CUS SSO SVC DMN CRATT
File this flight plan on PilotEdge
Remarks: Challenger test-flight 006
Altitude:
(Current/Filed)
12,500ft
Speed:
(Current/Filed)
280kts
Departed: 28-Nov-23 03:30 PM
Arrived: 28-Nov-23 04:34 PM
Distance/Time
Traveled:
0nm/1:04
Distance/Time
To Go:
Arrived

Flight Plot

Page will automatically refresh every two minutes.

Flight plan parsing failed; only flown route is shown


Map Options




Map Legend


Flown Route
Filed Route
Departure Airport
Arrival Airport
Navaid (VOR, NDB)
Fix

Horizontal Profiles

Position Reports

Time Latitude Longitude Heading Altitude Ground
Speed
28-Nov-23 14:53 31.876846 -106.701938 108 4119ft 0kts
28-Nov-23 14:54 31.876846 -106.701938 108 4119ft 0kts
28-Nov-23 14:55 31.876846 -106.701938 108 4119ft 0kts
28-Nov-23 14:56 31.876846 -106.701938 108 4119ft 0kts
28-Nov-23 14:57 31.876846 -106.701938 108 4119ft 0kts
28-Nov-23 14:58 31.876846 -106.701938 108 4119ft 0kts
28-Nov-23 14:59 31.876846 -106.701938 108 4119ft 0kts
28-Nov-23 15:00 31.876846 -106.701938 108 4119ft 0kts
28-Nov-23 15:01 31.876846 -106.701938 108 4119ft 0kts
28-Nov-23 15:02 31.876846 -106.701938 108 4119ft 0kts
28-Nov-23 15:03 31.876846 -106.701938 108 4119ft 0kts
28-Nov-23 15:04 31.876846 -106.701938 108 4119ft 0kts
28-Nov-23 15:05 31.876846 -106.701938 108 4119ft 0kts
28-Nov-23 15:06 31.876846 -106.701938 108 4119ft 0kts
28-Nov-23 15:07 31.876846 -106.701938 108 4119ft 0kts
28-Nov-23 15:08 31.876846 -106.701938 108 4119ft 0kts
28-Nov-23 15:09 31.876846 -106.701938 108 4119ft 0kts
28-Nov-23 15:10 31.876846 -106.701938 108 4119ft 0kts
28-Nov-23 15:11 31.876846 -106.701938 108 4119ft 0kts
28-Nov-23 15:12 31.876846 -106.701938 108 4119ft 0kts
28-Nov-23 15:13 31.876846 -106.701938 108 4119ft 0kts
28-Nov-23 15:14 31.876846 -106.701938 108 4119ft 0kts
28-Nov-23 15:15 31.876846 -106.701938 108 4119ft 0kts
28-Nov-23 15:16 31.876846 -106.701938 108 4119ft 0kts
28-Nov-23 15:17 31.876846 -106.701938 108 4119ft 0kts
28-Nov-23 15:18 31.876846 -106.701938 108 4119ft 0kts
28-Nov-23 15:19 31.876846 -106.701938 108 4119ft 0kts
28-Nov-23 15:20 31.876846 -106.701938 108 4119ft 0kts
28-Nov-23 15:21 31.876846 -106.701938 108 4119ft 0kts
28-Nov-23 15:22 31.876846 -106.701938 108 4119ft 0kts
28-Nov-23 15:23 31.876845 -106.701937 108 4119ft 0kts
28-Nov-23 15:24 31.877976 -106.700442 46 4119ft 9kts
28-Nov-23 15:25 31.876822 -106.696426 112 4118ft 17kts
28-Nov-23 15:26 31.875322 -106.692144 111 4116ft 14kts
28-Nov-23 15:27 31.874862 -106.689423 23 4112ft 0kts
28-Nov-23 15:28 31.874966 -106.689368 23 4112ft 3kts
28-Nov-23 15:29 31.877552 -106.694646 292 4118ft 102kts
28-Nov-23 15:30 31.896271 -106.749155 292 6483ft 212kts
28-Nov-23 15:31 31.918189 -106.813972 290 8492ft 216kts
28-Nov-23 15:32 31.940785 -106.879809 290 8628ft 215kts
28-Nov-23 15:33 31.960728 -106.946011 262 8620ft 211kts
28-Nov-23 15:34 31.946599 -107.013312 254 8620ft 211kts
28-Nov-23 15:35 31.931642 -107.081047 253 8615ft 223kts
28-Nov-23 15:36 31.915396 -107.153926 253 8614ft 239kts
28-Nov-23 15:37 31.898515 -107.229119 254 9349ft 233kts
28-Nov-23 15:38 31.880671 -107.308091 254 9393ft 266kts
28-Nov-23 15:39 31.860843 -107.395774 254 10034ft 278kts
28-Nov-23 15:40 31.840617 -107.484853 254 10672ft 287kts
28-Nov-23 15:41 31.821805 -107.575363 269 10666ft 283kts
28-Nov-23 15:43 31.844425 -107.665076 286 10663ft 287kts
28-Nov-23 15:44 31.869269 -107.754707 285 10662ft 286kts
28-Nov-23 15:45 31.893620 -107.843432 286 10660ft 286kts
28-Nov-23 15:46 31.918091 -107.933195 286 10657ft 287kts
28-Nov-23 15:47 31.942440 -108.022970 285 10652ft 286kts
28-Nov-23 15:48 31.966625 -108.112530 285 10648ft 286kts
28-Nov-23 15:49 31.990805 -108.202434 286 10654ft 286kts
28-Nov-23 15:50 32.014879 -108.292224 286 10649ft 286kts
28-Nov-23 15:51 32.038931 -108.382232 285 10648ft 286kts
28-Nov-23 15:52 32.062826 -108.471959 285 10657ft 285kts
28-Nov-23 15:53 32.086732 -108.562030 286 10641ft 286kts
28-Nov-23 15:54 32.110552 -108.652056 285 10653ft 285kts
28-Nov-23 15:55 32.134327 -108.742226 285 10645ft 285kts
28-Nov-23 15:56 32.157997 -108.832281 285 10662ft 286kts
28-Nov-23 15:57 32.181623 -108.922451 285 10667ft 286kts
28-Nov-23 15:58 32.205179 -109.012666 285 10678ft 285kts
28-Nov-23 15:59 32.228680 -109.102943 285 10687ft 286kts
28-Nov-23 16:00 32.274070 -109.172361 359 10687ft 297kts
28-Nov-23 16:01 32.323662 -109.101854 70 10685ft 301kts
28-Nov-23 16:02 32.354850 -109.009024 70 10680ft 303kts
28-Nov-23 16:03 32.386025 -108.916180 70 10680ft 302kts
28-Nov-23 16:04 32.417099 -108.823491 70 10675ft 301kts
28-Nov-23 16:05 32.448128 -108.730743 69 10668ft 301kts
28-Nov-23 16:06 32.479072 -108.638016 69 10666ft 302kts
28-Nov-23 16:06 32.504907 -108.560427 69 10647ft 300kts
28-Nov-23 16:08 32.540613 -108.452892 69 10654ft 299kts
28-Nov-23 16:09 32.571374 -108.359960 69 10662ft 301kts
28-Nov-23 16:09 32.596928 -108.282563 70 10676ft 300kts
28-Nov-23 16:10 32.627536 -108.188383 76 11482ft 303kts
28-Nov-23 16:12 32.589393 -108.086809 130 12341ft 301kts
28-Nov-23 16:13 32.537495 -108.007149 130 13065ft 305kts
28-Nov-23 16:13 32.493811 -107.940122 130 13569ft 309kts
28-Nov-23 16:14 32.436717 -107.852944 130 13755ft 370kts
28-Nov-23 16:15 32.373375 -107.756283 130 13753ft 369kts
28-Nov-23 16:17 32.301897 -107.647250 130 12123ft 337kts
28-Nov-23 16:17 32.266961 -107.569295 107 11080ft 303kts
28-Nov-23 16:18 32.245204 -107.478742 107 10029ft 277kts
28-Nov-23 16:19 32.225230 -107.395399 107 9648ft 256kts
28-Nov-23 16:20 32.206396 -107.316698 108 9448ft 232kts
28-Nov-23 16:21 32.188784 -107.243298 107 9389ft 239kts
28-Nov-23 16:22 32.170554 -107.167477 107 9338ft 239kts
28-Nov-23 16:23 32.152715 -107.093396 107 9282ft 225kts
28-Nov-23 16:24 32.121588 -107.034920 171 9233ft 217kts
28-Nov-23 16:25 32.060981 -107.031104 180 9193ft 217kts
28-Nov-23 16:26 32.001996 -107.026843 166 9136ft 204kts
28-Nov-23 16:27 31.971707 -106.972128 112 8762ft 207kts
28-Nov-23 16:28 31.952160 -106.914334 110 7770ft 177kts
28-Nov-23 16:29 31.934473 -106.862162 110 6813ft 167kts
28-Nov-23 16:30 31.917437 -106.811989 111 5891ft 163kts
28-Nov-23 16:31 31.901512 -106.765174 110 5024ft 146kts
28-Nov-23 16:32 31.886411 -106.721174 110 4409ft 145kts
28-Nov-23 16:33 31.876195 -106.690734 112 4115ft 28kts
28-Nov-23 16:34 31.875380 -106.692092 291 4116ft 16kts
28-Nov-23 16:35 31.877470 -106.698319 290 4119ft 23kts
28-Nov-23 16:36 31.877019 -106.700940 220 4119ft 10kts
28-Nov-23 16:37 31.876797 -106.701707 290 4119ft 0kts
28-Nov-23 16:38 31.876797 -106.701707 290 4119ft 0kts
28-Nov-23 16:39 31.876797 -106.701707 290 4119ft 0kts
28-Nov-23 16:40 31.876797 -106.701707 290 4119ft 0kts
28-Nov-23 16:41 31.876797 -106.701707 291 4119ft 0kts
28-Nov-23 16:42 31.876797 -106.701707 291 4119ft 0kts
28-Nov-23 16:43 31.876797 -106.701707 291 4119ft 0kts
28-Nov-23 16:44 31.876796 -106.701707 291 4119ft 0kts
28-Nov-23 16:45 31.876796 -106.701707 291 4119ft 0kts
28-Nov-23 16:46 31.876796 -106.701707 291 4119ft 0kts
28-Nov-23 16:47 31.876796 -106.701707 291 4119ft 0kts
28-Nov-23 16:48 31.876796 -106.701707 291 4119ft 0kts

Navigation Log

Ident Type
Flight plan parsing failed, navigation log unavailable